Time;durP1;ratioP1;P1;durP2;ratioP2;P2;SDS_P1;SDS_P2;PMS_P1;PMS_P2;Temp;Humidity;BMP_temperature;BMP_pressure;BME280_temperature;BME280_humidity;BME280_pressure;Samples;Min_cycle;Max_cycle;Signal;HPM_P1;HPM_P2
2021/08/02 00:00:16;;;;;;;6.85;4.90;;;;;;;20.88;100.00;99207.16;6248674;28;20046;-82
2021/08/02 00:03:25;;;;;;;5.38;4.40;;;;;;;20.93;100.00;99211.91;6249164;28;20243;-82
2021/08/02 00:06:32;;;;;;;9.50;4.95;;;;;;;20.99;100.00;99210.38;6248131;28;20414;-82
2021/08/02 00:09:36;;;;;;;7.32;4.95;;;;;;;20.79;100.00;99220.66;6247931;28;20046;-82
2021/08/02 00:13:05;;;;;;;6.25;5.38;;;;;;;20.74;100.00;99213.25;6247924;28;20048;-82
2021/08/02 00:16:06;;;;;;;7.68;5.80;;;;;;;20.77;100.00;99215.53;6247797;28;20086;-82
2021/08/02 00:19:08;;;;;;;7.05;5.20;;;;;;;20.57;100.00;99228.44;6247967;28;20050;-82
2021/08/02 00:22:09;;;;;;;6.90;5.20;;;;;;;20.71;100.00;99240.09;6247563;28;20129;-82
2021/08/02 00:25:11;;;;;;;9.80;5.40;;;;;;;20.76;100.00;99226.34;6246599;28;20050;-82
2021/08/02 00:28:13;;;;;;;5.97;5.05;;;;;;;20.75;100.00;99230.78;6231415;28;20049;-82
2021/08/02 00:31:15;;;;;;;7.63;5.63;;;;;;;20.55;100.00;99222.50;6231139;28;20044;-82
2021/08/02 00:34:16;;;;;;;5.50;4.70;;;;;;;20.65;100.00;99222.25;6231087;28;20061;-82
2021/08/02 00:37:25;;;;;;;9.20;5.70;;;;;;;20.69;100.00;99224.41;6247330;28;20314;-82
2021/08/02 00:40:45;;;;;;;10.43;5.22;;;;;;;20.60;100.00;99230.75;6247335;28;20481;-82
2021/08/02 00:44:14;;;;;;;12.32;6.03;;;;;;;20.26;100.00;99239.09;6247197;28;20041;-82
2021/08/02 00:47:22;;;;;;;6.90;5.03;;;;;;;20.34;100.00;99236.38;6247234;28;20045;-82
2021/08/02 00:50:26;;;;;;;9.57;5.55;;;;;;;20.17;100.00;99230.38;6247035;28;20049;-82
2021/08/02 00:53:27;;;;;;;10.35;5.43;;;;;;;20.12;100.00;99230.09;6247058;28;20134;-82
2021/08/02 00:56:32;;;;;;;8.87;5.10;;;;;;;20.11;100.00;99231.09;6248149;28;20459;-83
2021/08/02 00:59:33;;;;;;;8.27;5.47;;;;;;;20.08;100.00;99234.91;6247025;28;20286;-82
2021/08/02 01:02:40;;;;;;;5.82;4.88;;;;;;;19.91;100.00;99235.97;6230179;28;20111;-82
2021/08/02 01:05:42;;;;;;;7.03;4.90;;;;;;;19.99;100.00;99235.13;6248349;28;20049;-82
2021/08/02 01:08:47;;;;;;;7.32;4.93;;;;;;;20.00;100.00;99220.91;6214400;28;20397;-82
2021/08/02 01:11:51;;;;;;;6.18;4.85;;;;;;;20.09;100.00;99228.59;6248056;28;20046;-82
2021/08/02 01:14:54;;;;;;;6.35;4.90;;;;;;;20.15;100.00;99228.91;6247540;28;20045;-82
2021/08/02 01:17:56;;;;;;;8.80;5.47;;;;;;;19.95;100.00;99226.69;6247679;28;20056;-82
2021/08/02 01:21:04;;;;;;;7.13;5.10;;;;;;;20.04;100.00;99232.78;6246174;28;20034;-82
2021/08/02 01:24:12;;;;;;;5.60;4.88;;;;;;;19.97;100.00;99227.34;6230102;28;20041;-82
2021/08/02 01:27:46;;;;;;;6.30;5.38;;;;;;;19.96;100.00;99231.00;6246272;28;20076;-82
2021/08/02 01:30:49;;;;;;;6.18;5.05;;;;;;;19.92;100.00;99251.69;6247140;28;20124;-82
2021/08/02 01:33:50;;;;;;;9.38;5.45;;;;;;;19.73;100.00;99245.03;6246425;28;20052;-82
2021/08/02 01:36:51;;;;;;;8.20;5.67;;;;;;;19.62;100.00;99252.47;6229417;28;20081;-82
2021/08/02 01:39:55;;;;;;;6.30;5.20;;;;;;;19.68;100.00;99255.28;6213386;28;20050;-82
2021/08/02 01:43:04;;;;;;;7.82;5.38;;;;;;;19.66;100.00;99249.34;6213675;28;20400;-82
2021/08/02 01:46:14;;;;;;;7.85;5.00;;;;;;;19.66;100.00;99256.44;6215310;28;20046;-82
2021/08/02 01:49:24;;;;;;;6.00;4.95;;;;;;;19.68;100.00;99257.06;6245970;28;20048;-82
2021/08/02 01:52:31;;;;;;;9.63;5.07;;;;;;;19.73;100.00;99241.56;6245611;28;20095;-82
2021/08/02 01:55:32;;;;;;;5.95;5.03;;;;;;;19.76;100.00;99246.50;6245859;28;20045;-82
2021/08/02 01:58:43;;;;;;;6.10;4.97;;;;;;;19.77;100.00;99247.31;6229871;28;20484;-82
2021/08/02 02:02:02;;;;;;;10.80;5.43;;;;;;;19.58;100.00;99257.31;6245269;28;20234;-82
2021/08/02 02:05:05;;;;;;;6.90;5.05;;;;;;;19.72;100.00;99259.22;6244793;28;20045;-81
2021/08/02 02:08:29;;;;;;;5.65;5.10;;;;;;;19.77;100.00;99250.81;6245416;28;20038;-82
2021/08/02 02:11:32;;;;;;;5.18;4.65;;;;;;;19.95;100.00;99252.34;6245290;28;20037;-82
2021/08/02 02:14:36;;;;;;;6.10;5.32;;;;;;;19.84;100.00;99253.56;6228774;28;20048;-82
2021/08/02 02:17:37;;;;;;;9.45;5.30;;;;;;;19.76;100.00;99259.72;6245152;28;20048;-82
2021/08/02 02:20:38;;;;;;;9.23;4.97;;;;;;;19.73;100.00;99281.25;6245374;28;20069;-81
2021/08/02 02:23:39;;;;;;;6.97;4.77;;;;;;;19.83;100.00;99295.09;6228588;28;20049;-82
2021/08/02 02:26:41;;;;;;;6.93;5.17;;;;;;;19.78;100.00;99302.72;6212323;28;20531;-82
2021/08/02 02:29:43;;;;;;;6.50;4.82;;;;;;;19.68;100.00;99316.16;6228685;28;20052;-82
2021/08/02 02:32:45;;;;;;;8.73;4.70;;;;;;;19.67;100.00;99319.78;6244987;28;20037;-81
2021/08/02 02:35:49;;;;;;;5.57;4.60;;;;;;;19.70;100.00;99316.81;6212168;28;20042;-82
2021/08/02 02:38:51;;;;;;;8.13;4.72;;;;;;;19.63;100.00;99320.28;6244859;28;20099;-82
2021/08/02 02:41:52;;;;;;;5.55;4.80;;;;;;;19.64;100.00;99309.53;6228380;28;20049;-82
2021/08/02 02:44:53;;;;;;;;;;;;;;;19.68;100.00;99318.78;6228926;28;20440;-82
2021/08/02 02:47:56;;;;;;;9.13;4.97;;;;;;;19.69;100.00;99331.00;6248347;28;20429;-81
2021/08/02 02:50:57;;;;;;;13.50;5.20;;;;;;;19.57;100.00;99324.44;6233632;28;20052;-82
2021/08/02 02:54:00;;;;;;;6.25;5.00;;;;;;;19.46;100.00;99341.50;6233459;28;20054;-82
2021/08/02 02:57:01;;;;;;;8.32;5.28;;;;;;;19.47;100.00;99340.47;6233163;28;20040;-82
2021/08/02 03:00:02;;;;;;;;;;;;;;;19.51;100.00;99346.28;6233740;28;20041;-82
2021/08/02 03:03:06;;;;;;;8.30;5.07;;;;;;;19.56;100.00;99348.41;6233212;28;19967;-82
2021/08/02 03:06:08;;;;;;;5.90;5.28;;;;;;;19.50;100.00;99358.69;6249556;28;20512;-82
2021/08/02 03:09:11;;;;;;;9.45;5.40;;;;;;;19.55;100.00;99371.41;6249609;28;20038;-82
2021/08/02 03:12:12;;;;;;;7.13;5.15;;;;;;;19.64;100.00;99381.00;6249581;28;20107;-82
2021/08/02 03:15:13;;;;;;;7.97;5.60;;;;;;;19.33;100.00;99368.47;6216450;28;20063;-82
2021/08/02 03:18:14;;;;;;;8.82;5.57;;;;;;;19.37;100.00;99374.22;6233509;28;20053;-81
2021/08/02 03:21:16;;;;;;;6.40;5.67;;;;;;;19.33;100.00;99373.75;6249205;28;20033;-82
2021/08/02 03:24:41;;;;;;;10.05;5.25;;;;;;;19.18;100.00;99377.22;6250416;28;20033;-82
2021/08/02 03:27:56;;;;;;;8.80;5.45;;;;;;;19.26;100.00;99379.88;6249007;28;20434;-82
2021/08/02 03:31:00;;;;;;;6.30;5.47;;;;;;;19.29;100.00;99368.94;6250207;28;20073;-82
2021/08/02 03:34:06;;;;;;;10.95;5.88;;;;;;;19.22;100.00;99368.78;6248733;28;20047;-82
2021/08/02 03:37:12;;;;;;;7.32;5.13;;;;;;;19.30;99.43;99378.53;6248785;28;20047;-82
2021/08/02 03:40:16;;;;;;;7.68;5.22;;;;;;;19.35;99.58;99380.69;6249015;28;20060;-82
2021/08/02 03:43:17;;;;;;;8.40;5.13;;;;;;;19.29;99.22;99375.09;6248634;28;20128;-82
2021/08/02 03:46:21;;;;;;;5.85;5.25;;;;;;;19.32;98.46;99380.03;6248560;28;20055;-81
2021/08/02 03:49:21;;;;;;;7.03;5.47;;;;;;;19.24;98.70;99390.59;6248659;28;20041;-82
2021/08/02 03:52:22;;;;;;;8.53;5.70;;;;;;;19.10;100.00;99391.25;6248571;28;20506;-82
2021/08/02 03:55:24;;;;;;;6.70;5.37;;;;;;;19.06;100.00;99393.41;6249593;28;20045;-81
2021/08/02 03:58:26;;;;;;;9.43;5.65;;;;;;;19.07;99.84;99395.06;6248544;28;20068;-82
2021/08/02 04:01:26;;;;;;;5.85;5.07;;;;;;;19.20;99.56;99388.47;6249837;28;20092;-81
2021/08/02 04:04:27;;;;;;;7.90;5.30;;;;;;;19.09;99.41;99394.91;6249722;28;20045;-82
2021/08/02 04:07:28;;;;;;;10.57;6.10;;;;;;;18.98;100.00;99393.41;6232171;28;20057;-82
2021/08/02 04:10:30;;;;;;;18.80;5.63;;;;;;;18.93;100.00;99398.34;6232133;28;20049;-82
2021/08/02 04:13:31;;;;;;;8.63;6.20;;;;;;;18.86;100.00;99410.56;6215455;28;20038;-82
2021/08/02 04:16:33;;;;;;;7.27;5.50;;;;;;;19.10;100.00;99407.94;6247996;28;20096;-82
2021/08/02 04:19:34;;;;;;;8.82;4.97;;;;;;;19.15;100.00;99414.56;6248118;28;20124;-82
2021/08/02 04:22:35;;;;;;;6.97;5.93;;;;;;;18.85;100.00;99411.56;6247735;28;20045;-82
2021/08/02 04:25:35;;;;;;;11.67;6.10;;;;;;;18.88;100.00;99411.22;6231463;28;20084;-82
2021/08/02 04:28:36;;;;;;;8.20;5.93;;;;;;;19.02;100.00;99421.16;6212646;28;20092;-82
2021/08/02 04:31:37;;;;;;;8.40;6.37;;;;;;;19.11;100.00;99422.03;6223134;28;20062;-82
2021/08/02 04:34:38;;;;;;;9.53;5.93;;;;;;;19.15;100.00;99425.97;6190615;28;20038;-82
2021/08/02 04:37:39;;;;;;;6.97;5.63;;;;;;;19.06;100.00;99425.13;6222909;28;20042;-82
2021/08/02 04:40:39;;;;;;;9.03;5.87;;;;;;;18.96;100.00;99426.28;6222856;28;20042;-82
2021/08/02 04:43:40;;;;;;;10.33;5.87;;;;;;;18.87;100.00;99443.94;6190350;28;20045;-82
2021/08/02 04:46:41;;;;;;;8.52;6.05;;;;;;;18.89;100.00;99444.63;6206568;28;20077;-82
2021/08/02 04:49:42;;;;;;;9.03;6.50;;;;;;;18.82;100.00;99451.50;6223741;28;20546;-81
2021/08/02 04:52:43;;;;;;;9.93;6.20;;;;;;;18.93;100.00;99449.41;6190072;28;20038;-82
2021/08/02 04:55:44;;;;;;;10.02;5.80;;;;;;;18.88;100.00;99461.44;6206131;28;20100;-82
2021/08/02 04:58:45;;;;;;;8.13;5.83;;;;;;;18.70;100.00;99466.84;6190036;28;20512;-82
2021/08/02 05:01:46;;;;;;;6.60;5.77;;;;;;;18.88;100.00;99464.94;6219043;28;20073;-80
2021/08/02 05:04:46;;;;;;;9.40;5.38;;;;;;;18.84;100.00;99460.97;6231164;28;20033;-80
2021/08/02 05:07:47;;;;;;;8.77;5.63;;;;;;;18.83;100.00;99469.84;6231258;28;20045;-80
2021/08/02 05:10:48;;;;;;;6.07;5.00;;;;;;;19.07;100.00;99473.56;6230481;28;20121;-80
2021/08/02 05:13:49;;;;;;;5.90;5.25;;;;;;;19.02;100.00;99486.44;6247415;28;20045;-80
2021/08/02 05:16:49;;;;;;;8.37;5.43;;;;;;;19.01;100.00;99496.19;6231235;28;20045;-81
2021/08/02 05:19:50;;;;;;;8.10;4.83;;;;;;;19.09;100.00;99490.09;6246774;28;20042;-82
2021/08/02 05:22:52;;;;;;;6.73;5.27;;;;;;;19.10;99.83;99486.44;6246037;28;20507;-82
2021/08/02 05:25:53;;;;;;;;;;;;;;;19.16;99.97;99492.91;6230970;28;20038;-83
2021/08/02 05:28:54;;;;;;;9.13;5.43;;;;;;;18.96;99.11;99489.72;6246577;28;19928;-82
2021/08/02 05:31:54;;;;;;;7.57;5.73;;;;;;;18.91;100.00;99498.97;6239495;28;20148;-83
2021/08/02 05:34:55;;;;;;;8.87;5.70;;;;;;;18.80;100.00;99507.19;6213583;28;20038;-83
2021/08/02 05:37:56;;;;;;;8.10;5.43;;;;;;;18.98;99.47;99504.44;6205320;28;20064;-83
2021/08/02 05:40:58;;;;;;;7.27;5.40;;;;;;;19.13;99.24;99512.59;6189101;28;20119;-83
2021/08/02 05:43:58;;;;;;;6.30;5.47;;;;;;;18.96;99.68;99516.16;6189418;28;20050;-83
2021/08/02 05:47:00;;;;;;;8.23;5.20;;;;;;;19.18;98.07;99501.50;6205049;28;20052;-82
2021/08/02 05:50:01;;;;;;;7.72;5.45;;;;;;;19.20;99.11;99497.72;6221694;28;20067;-82
2021/08/02 05:53:02;;;;;;;8.47;4.73;;;;;;;19.26;97.98;99498.88;6221566;28;20096;-82
2021/08/02 05:56:02;;;;;;;7.27;5.13;;;;;;;19.51;97.18;99497.06;6188882;28;20096;-83
2021/08/02 05:59:03;;;;;;;6.23;5.23;;;;;;;19.45;96.45;99500.38;6204816;28;20093;-84
2021/08/02 06:02:04;;;;;;;8.93;4.80;;;;;;;19.42;95.53;99506.00;6205437;28;20493;-81
2021/08/02 06:05:05;;;;;;;5.57;5.00;;;;;;;19.43;95.47;99507.66;6204705;28;20056;-81
2021/08/02 06:08:05;;;;;;;10.83;5.43;;;;;;;19.49;95.19;99501.72;6224987;28;20385;-79
2021/08/02 06:11:07;;;;;;;7.03;4.77;;;;;;;19.46;94.66;99507.34;6214828;28;20037;-80
2021/08/02 06:14:07;;;;;;;8.35;4.95;;;;;;;19.48;95.47;99505.38;6229907;28;20038;-80
2021/08/02 06:17:08;;;;;;;5.43;4.80;;;;;;;19.29;96.72;99519.69;6244369;28;20049;-82
2021/08/02 06:20:10;;;;;;;6.80;4.90;;;;;;;19.47;95.15;99530.97;6222052;28;20190;-76
2021/08/02 06:23:11;;;;;;;9.57;5.55;;;;;;;19.59;96.09;99531.47;6220470;28;20060;-80
2021/08/02 06:26:11;;;;;;;6.37;5.27;;;;;;;19.89;94.07;99542.41;6215801;28;20132;-80
2021/08/02 06:29:12;;;;;;;4.90;4.37;;;;;;;20.03;91.63;99552.34;6241065;28;20489;-79
2021/08/02 06:32:13;;;;;;;10.00;5.13;;;;;;;20.02;92.52;99558.66;6228972;28;20158;-82
2021/08/02 06:35:14;;;;;;;6.00;4.53;;;;;;;20.02;91.39;99553.34;6228788;28;20385;-86
2021/08/02 06:38:14;;;;;;;8.87;4.97;;;;;;;19.86;91.59;99551.53;6245748;28;20129;-84
2021/08/02 06:41:15;;;;;;;8.93;4.83;;;;;;;19.96;92.57;99551.38;6212549;28;20132;-82
2021/08/02 06:44:19;;;;;;;6.78;5.60;;;;;;;19.99;93.35;99563.44;6221754;28;20049;-83
2021/08/02 06:47:19;;;;;;;14.63;5.25;;;;;;;20.16;89.67;99553.66;6244482;28;20484;-84
2021/08/02 06:50:20;;;;;;;6.53;5.03;;;;;;;20.26;89.32;99559.59;6244969;28;20108;-84
2021/08/02 06:53:21;;;;;;;13.57;6.30;;;;;;;20.36;88.93;99556.78;6228414;28;20092;-81
2021/08/02 06:56:23;;;;;;;7.13;5.00;;;;;;;20.23;89.21;99562.59;6229630;28;20123;-81
2021/08/02 06:59:23;;;;;;;8.90;4.70;;;;;;;20.23;90.07;99557.31;6229914;28;20475;-78
2021/08/02 07:02:24;;;;;;;9.47;4.77;;;;;;;20.31;90.69;99557.28;6247211;28;20049;-83
2021/08/02 07:05:27;;;;;;;7.10;5.27;;;;;;;20.28;88.09;99565.56;6219447;28;20140;-87
2021/08/02 07:08:27;;;;;;;7.47;4.43;;;;;;;20.41;87.54;99570.34;6246335;28;20053;-90
2021/08/02 07:11:29;;;;;;;10.63;4.60;;;;;;;20.51;86.72;99569.16;6214740;28;20037;-92
2021/08/02 07:14:29;;;;;;;6.68;4.32;;;;;;;20.48;89.24;99566.84;6246469;28;20037;-89
2021/08/02 07:17:30;;;;;;;8.30;3.97;;;;;;;20.67;85.86;99570.13;6246244;28;20064;-84
2021/08/02 07:20:31;;;;;;;8.03;3.70;;;;;;;20.73;84.29;99578.25;6215180;28;20437;-83
2021/08/02 07:23:31;;;;;;;5.60;4.27;;;;;;;20.85;86.20;99573.38;6204383;28;20529;-83
2021/08/02 07:26:32;;;;;;;6.57;4.10;;;;;;;20.90;87.42;99570.25;6204850;28;20104;-88
2021/08/02 07:29:32;;;;;;;5.93;4.20;;;;;;;20.83;85.09;99582.50;6204994;28;20085;-88
2021/08/02 07:32:33;;;;;;;3.97;3.57;;;;;;;20.79;84.53;99589.16;6204959;28;20408;-87
2021/08/02 07:35:34;;;;;;;5.60;3.57;;;;;;;20.90;84.99;99584.31;6206607;28;20041;-89
2021/08/02 07:38:36;;;;;;;10.00;4.40;;;;;;;20.94;83.01;99592.75;6218455;28;20048;-84
2021/08/02 07:41:37;;;;;;;4.68;3.55;;;;;;;21.00;82.25;99597.38;6250378;28;20100;-84
2021/08/02 07:44:38;;;;;;;3.87;3.57;;;;;;;21.10;84.01;99597.16;6249330;28;20107;-87
2021/08/02 07:47:39;;;;;;;4.70;2.83;;;;;;;21.25;80.21;99598.09;6232225;28;20128;-77
2021/08/02 07:50:40;;;;;;;4.35;3.10;;;;;;;21.34;79.86;99606.81;6248902;28;20455;-80
2021/08/02 07:53:41;;;;;;;3.07;2.63;;;;;;;21.46;80.62;99617.91;6247834;28;20042;-78
2021/08/02 07:56:42;;;;;;;7.17;3.20;;;;;;;21.41;79.03;99613.06;6247816;28;20045;-79
2021/08/02 07:59:42;;;;;;;4.03;2.90;;;;;;;21.39;78.92;99615.06;6231426;28;20091;-78
2021/08/02 08:02:46;;;;;;;6.63;2.60;;;;;;;21.51;79.67;99620.84;6231904;28;20056;-87
2021/08/02 08:05:47;;;;;;;3.63;2.40;;;;;;;21.60;77.28;99611.84;6250586;28;20051;-83
2021/08/02 08:08:49;;;;;;;8.88;2.78;;;;;;;21.67;77.82;99617.28;6199573;28;20042;-79
2021/08/02 08:11:49;;;;;;;5.45;3.50;;;;;;;21.79;76.55;99615.06;6207352;28;20385;-83
2021/08/02 08:14:50;;;;;;;7.83;4.60;;;;;;;21.89;75.14;99624.41;6207685;28;20562;-85
2021/08/02 08:17:52;;;;;;;8.80;3.87;;;;;;;21.86;77.70;99630.06;6238804;28;20099;-86
2021/08/02 08:20:53;;;;;;;7.38;4.05;;;;;;;21.96;77.15;99635.16;6247909;28;20119;-87
2021/08/02 08:23:55;;;;;;;4.30;2.30;;;;;;;21.94;74.33;99629.19;6250360;28;20532;-90
2021/08/02 08:26:55;;;;;;;3.95;2.40;;;;;;;22.03;74.41;99636.13;6249856;28;20488;-88
2021/08/02 08:29:57;;;;;;;2.60;2.07;;;;;;;22.10;74.34;99634.38;6234205;28;20120;-89
2021/08/02 08:32:57;;;;;;;5.07;2.10;;;;;;;22.23;75.01;99641.78;6233975;28;20041;-90
2021/08/02 08:35:58;;;;;;;3.87;1.73;;;;;;;22.30;71.91;99649.88;6233782;28;20045;-90
2021/08/02 08:38:59;;;;;;;3.83;2.00;;;;;;;22.35;72.20;99647.50;6233011;28;20116;-88
2021/08/02 08:42:00;;;;;;;3.70;2.07;;;;;;;22.50;71.99;99660.81;6231211;28;20476;-87
2021/08/02 08:45:01;;;;;;;3.25;2.28;;;;;;;22.43;69.55;99658.06;6215182;28;20278;-88
2021/08/02 08:48:06;;;;;;;3.58;2.13;;;;;;;22.51;71.38;99647.34;6231573;28;20041;-86
2021/08/02 08:51:08;;;;;;;3.28;1.80;;;;;;;22.59;70.59;99654.41;6231689;28;20099;-87
2021/08/02 08:54:09;;;;;;;2.53;2.00;;;;;;;22.63;70.14;99650.41;6231255;28;20389;-89
2021/08/02 08:57:11;;;;;;;;;;;;;;;22.72;69.98;99654.59;6231598;28;20405;-87
2021/08/02 09:00:27;;;;;;;5.35;1.73;;;;;;;22.62;68.53;99654.03;6247637;28;19936;-87
2021/08/02 09:03:29;;;;;;;4.03;1.35;;;;;;;22.67;67.98;99656.16;6247194;28;20073;-88
2021/08/02 09:06:29;;;;;;;2.25;1.42;;;;;;;22.70;68.42;99655.81;6246990;28;20041;-87
2021/08/02 09:09:33;;;;;;;2.00;1.17;;;;;;;22.69;64.05;99651.47;6247418;28;20119;-86
2021/08/02 09:12:34;;;;;;;2.83;1.35;;;;;;;22.65;66.16;99653.69;6249753;28;20115;-88
2021/08/02 09:15:44;;;;;;;2.92;1.48;;;;;;;22.67;66.39;99645.50;6231049;28;20041;-85
2021/08/02 09:19:02;;;;;;;3.45;1.58;;;;;;;22.82;65.86;99640.22;6247777;28;20038;-88
2021/08/02 09:22:04;;;;;;;1.73;1.20;;;;;;;22.86;66.38;99646.84;6247797;28;20133;-88
2021/08/02 09:25:09;;;;;;;3.50;1.20;;;;;;;22.93;66.16;99640.56;6231875;28;20042;-87
2021/08/02 09:28:18;;;;;;;1.00;1.00;;;;;;;23.02;63.37;99646.69;6248802;28;20076;-89
2021/08/02 09:31:19;;;;;;;4.70;1.10;;;;;;;23.02;64.15;99640.50;6247892;28;20041;-89
2021/08/02 09:34:22;;;;;;;2.42;1.08;;;;;;;23.07;62.52;99640.81;6232666;28;20053;-88
2021/08/02 09:37:26;;;;;;;1.70;1.42;;;;;;;23.20;66.84;99648.94;6231856;28;20480;-87
2021/08/02 09:40:35;;;;;;;1.52;1.15;;;;;;;23.23;63.55;99643.25;6248347;28;20037;-88
2021/08/02 09:43:35;;;;;;;4.05;1.48;;;;;;;23.37;64.02;99646.91;6247808;28;20046;-88
2021/08/02 09:46:37;;;;;;;2.05;0.80;;;;;;;23.41;61.53;99645.53;6215337;28;20089;-88
2021/08/02 09:49:46;;;;;;;2.30;1.13;;;;;;;23.45;60.90;99648.63;6237090;28;20045;-88
2021/08/02 09:52:51;;;;;;;1.50;1.00;;;;;;;23.61;58.51;99658.22;6206774;28;20551;-88
2021/08/02 09:55:52;;;;;;;1.30;0.80;;;;;;;23.67;60.51;99657.47;6222581;28;20049;-88
2021/08/02 09:58:53;;;;;;;1.07;0.70;;;;;;;23.71;59.97;99674.72;6206795;28;20463;-89
2021/08/02 10:01:56;;;;;;;1.67;0.60;;;;;;;23.70;58.86;99665.94;6190098;28;20429;-87
2021/08/02 10:04:57;;;;;;;1.23;0.80;;;;;;;23.77;58.20;99662.53;6206701;28;20046;-88
2021/08/02 10:07:58;;;;;;;7.90;0.70;;;;;;;23.94;54.60;99674.59;6223054;28;20541;-90
2021/08/02 10:10:59;;;;;;;1.30;0.80;;;;;;;23.97;56.61;99668.06;6207334;28;20409;-90
2021/08/02 10:14:00;;;;;;;6.53;0.80;;;;;;;24.14;58.16;99678.28;6224471;28;20049;-91
2021/08/02 10:17:10;;;;;;;0.60;0.60;;;;;;;24.27;55.11;99677.56;6195094;28;20785;-89
2021/08/02 10:20:21;;;;;;;2.00;0.70;;;;;;;24.39;57.56;99677.88;6202981;28;20088;-87
2021/08/02 10:23:25;;;;;;;1.42;0.57;;;;;;;24.43;58.16;99670.31;6222116;28;20050;-87
2021/08/02 10:26:30;;;;;;;1.13;0.60;;;;;;;24.53;56.18;99676.19;6222194;28;20261;-88
2021/08/02 10:29:39;;;;;;;1.50;0.60;;;;;;;24.47;55.08;99677.72;6238858;28;20041;-88
2021/08/02 10:32:51;;;;;;;2.78;0.70;;;;;;;24.40;56.93;99671.53;6222229;28;20052;-89
2021/08/02 10:35:52;;;;;;;0.98;0.47;;;;;;;24.17;57.26;99671.72;6239178;28;20066;-86
2021/08/02 10:38:53;;;;;;;3.58;0.50;;;;;;;24.27;56.41;99666.91;6205954;28;20099;-88
2021/08/02 10:42:20;;;;;;;1.02;0.30;;;;;;;24.50;55.23;99676.53;6222349;28;20038;-88
2021/08/02 10:45:29;;;;;;;1.50;0.40;;;;;;;24.48;52.36;99676.72;6238497;28;20045;-86
2021/08/02 10:48:33;;;;;;;1.00;0.50;;;;;;;24.44;52.57;99669.28;6222453;28;20471;-88
2021/08/02 10:51:45;;;;;;;1.25;0.20;;;;;;;24.55;52.09;99678.66;6223193;28;20504;-88
2021/08/02 10:54:46;;;;;;;0.43;0.20;;;;;;;24.58;51.68;99678.25;6239208;28;20096;-89
2021/08/02 10:57:57;;;;;;;1.47;0.80;;;;;;;24.74;49.18;99667.28;6205888;28;20034;-88
2021/08/02 11:00:59;;;;;;;;;;;;;;;24.93;52.01;99669.28;6222953;28;20065;-90
2021/08/02 11:04:10;;;;;;;0.70;0.35;;;;;;;24.92;50.17;99672.13;6222255;28;19956;-88
2021/08/02 11:07:11;;;;;;;1.00;0.30;;;;;;;25.05;50.14;99658.03;6239135;28;20152;-84
2021/08/02 11:10:16;;;;;;;4.50;0.40;;;;;;;25.15;47.51;99655.81;6210334;28;20377;-89
2021/08/02 11:13:26;;;;;;;1.77;0.60;;;;;;;25.30;49.51;99663.72;6225746;28;20065;-80
2021/08/02 11:16:27;;;;;;;0.57;0.43;;;;;;;25.51;48.56;99663.59;6208609;28;20042;-82
2021/08/02 11:19:29;;;;;;;5.33;0.43;;;;;;;25.57;46.38;99666.50;6208735;28;20117;-81
2021/08/02 11:22:30;;;;;;;1.30;0.30;;;;;;;25.63;46.47;99679.03;6224898;28;20042;-80
2021/08/02 11:25:33;;;;;;;0.45;0.40;;;;;;;25.70;45.48;99671.88;6224754;28;20053;-82
2021/08/02 11:28:43;;;;;;;0.20;0.20;;;;;;;25.68;45.69;99671.25;6225247;28;20038;-83
2021/08/02 11:31:56;;;;;;;2.45;0.30;;;;;;;25.73;46.03;99671.47;6242068;28;20065;-78
2021/08/02 11:34:58;;;;;;;0.35;0.30;;;;;;;25.96;43.94;99675.66;6225635;28;20046;-81
2021/08/02 11:37:59;;;;;;;0.25;0.25;;;;;;;26.16;45.66;99667.66;6224366;28;20048;-82
2021/08/02 11:41:00;;;;;;;0.40;0.30;;;;;;;26.64;45.10;99668.28;6226115;28;20046;-82
2021/08/02 11:44:00;;;;;;;0.23;0.23;;;;;;;26.88;43.02;99666.81;6249627;28;20048;-82
2021/08/02 11:47:03;;;;;;;0.35;0.35;;;;;;;26.79;44.45;99669.91;6200343;28;20758;-83
2021/08/02 11:50:05;;;;;;;0.55;0.30;;;;;;;26.09;45.58;99681.03;6224686;28;20046;-83
2021/08/02 11:53:09;;;;;;;0.40;0.30;;;;;;;29.97;35.55;99678.34;6224080;28;20525;-83
2021/08/02 11:56:09;;;;;;;3.33;0.30;;;;;;;32.33;30.67;99672.53;6208036;28;20046;-83
2021/08/02 11:59:29;;;;;;;0.40;0.40;;;;;;;32.91;30.62;99673.13;6208083;28;20076;-82
2021/08/02 12:02:41;;;;;;;3.95;0.50;;;;;;;35.11;26.77;99672.41;6211513;28;20053;-82
2021/08/02 12:05:44;;;;;;;0.30;0.30;;;;;;;35.92;24.79;99667.50;6241504;28;20408;-89
2021/08/02 12:08:51;;;;;;;0.20;0.20;;;;;;;38.09;21.36;99674.66;6222157;28;20073;-87
2021/08/02 12:11:52;;;;;;;2.10;0.30;;;;;;;37.33;22.41;99678.66;6222479;28;20084;-89
2021/08/02 12:15:03;;;;;;;0.77;0.30;;;;;;;38.85;19.57;99678.53;6226584;28;20125;-90
2021/08/02 12:18:04;;;;;;;0.38;0.30;;;;;;;40.82;17.92;99678.03;6225289;28;20038;-87
2021/08/02 12:21:17;;;;;;;0.80;0.20;;;;;;;41.44;16.80;99681.09;6205852;28;20049;-85
2021/08/02 12:24:18;;;;;;;1.95;0.40;;;;;;;40.74;17.02;99684.22;6223573;28;20537;-83
2021/08/02 12:27:20;;;;;;;0.90;0.30;;;;;;;40.32;17.17;99686.06;6207346;28;20125;-85
2021/08/02 12:30:23;;;;;;;1.17;0.30;;;;;;;39.44;18.97;99679.22;6207403;28;20408;-84
2021/08/02 12:33:24;;;;;;;0.40;0.28;;;;;;;39.48;18.53;99673.97;6229687;28;20057;-86
2021/08/02 12:36:25;;;;;;;0.30;0.10;;;;;;;36.58;22.64;99674.81;6231563;28;20396;-83
2021/08/02 12:39:29;;;;;;;2.17;0.47;;;;;;;34.04;26.58;99677.91;6213419;28;20381;-81
2021/08/02 12:42:30;;;;;;;9.30;1.00;;;;;;;33.44;30.86;99685.16;6231360;28;20038;-84
2021/08/02 12:45:30;;;;;;;2.97;1.23;;;;;;;32.24;34.71;99682.09;6231492;28;20048;-85
2021/08/02 12:48:31;;;;;;;3.97;1.17;;;;;;;31.21;36.30;99685.53;6231831;28;20041;-88
2021/08/02 12:51:32;;;;;;;7.97;1.05;;;;;;;30.62;38.23;99699.06;6232291;28;20042;-86
2021/08/02 12:54:33;;;;;;;6.65;1.02;;;;;;;29.94;40.54;99700.34;6231404;28;20116;-85
2021/08/02 12:57:38;;;;;;;2.05;1.13;;;;;;;29.92;39.35;99702.44;6247653;28;20042;-84
2021/08/02 13:00:38;;;;;;;1.45;0.90;;;;;;;29.85;40.54;99699.81;6231275;28;20060;-81
2021/08/02 13:03:41;;;;;;;;;;;;;;;29.89;39.74;99700.19;6231817;28;20496;-86
2021/08/02 13:06:45;;;;;;;1.35;0.90;;;;;;;29.52;40.48;99702.94;6247535;28;19921;-85
2021/08/02 13:09:55;;;;;;;2.53;1.05;;;;;;;29.61;40.14;99698.06;6232551;28;20067;-83
2021/08/02 13:12:55;;;;;;;7.10;1.33;;;;;;;29.47;40.94;99703.63;6248581;28;20112;-77
2021/08/02 13:15:57;;;;;;;3.17;1.00;;;;;;;29.25;40.57;99702.44;6249792;28;20106;-77
2021/08/02 13:18:58;;;;;;;12.05;1.30;;;;;;;29.23;40.84;99704.53;6233172;28;20110;-77
2021/08/02 13:21:59;;;;;;;4.97;0.98;;;;;;;28.74;42.14;99707.06;6231123;28;20463;-84
2021/08/02 13:28:19;;;;;;;2.90;1.23;;;;;;;28.73;42.36;99702.75;6228589;28;20095;-77
2021/08/02 13:31:20;;;;;;;2.47;0.90;;;;;;;28.78;41.26;99702.88;6221191;28;20034;-80
2021/08/02 13:34:21;;;;;;;1.38;0.90;;;;;;;28.49;42.55;99704.38;6225784;28;20060;-77
2021/08/02 13:37:22;;;;;;;1.63;1.00;;;;;;;28.37;42.72;99712.28;6246031;28;20447;-77
2021/08/02 13:40:22;;;;;;;3.30;1.00;;;;;;;28.23;41.74;99718.78;6229661;28;20041;-77
2021/08/02 13:43:23;;;;;;;0.90;0.90;;;;;;;28.42;40.77;99708.97;6245858;28;20424;-77
2021/08/02 13:46:24;;;;;;;5.78;1.00;;;;;;;28.20;42.30;99706.66;6229532;28;20041;-74
2021/08/02 13:49:27;;;;;;;7.60;1.10;;;;;;;28.23;43.17;99710.75;6246705;28;20119;-78
2021/08/02 13:52:28;;;;;;;2.80;1.10;;;;;;;28.11;42.50;99710.66;6236868;28;20038;-80
2021/08/02 13:55:30;;;;;;;4.82;1.40;;;;;;;28.10;43.59;99711.66;6217100;28;20431;-77
2021/08/02 13:58:31;;;;;;;2.78;0.90;;;;;;;27.91;43.56;99703.53;6204880;28;20076;-76
2021/08/02 14:01:32;;;;;;;6.32;0.93;;;;;;;27.95;43.38;99711.97;6204681;28;20451;-78
2021/08/02 14:04:35;;;;;;;4.35;1.00;;;;;;;27.91;43.66;99708.91;6220926;28;20057;-77
2021/08/02 14:07:36;;;;;;;1.30;0.90;;;;;;;27.88;42.88;99709.34;6208663;28;20136;-78
2021/08/02 14:10:37;;;;;;;5.38;1.10;;;;;;;27.76;43.15;99711.03;6246256;28;20037;-77
2021/08/02 14:13:41;;;;;;;2.40;1.00;;;;;;;27.52;44.27;99709.91;6245169;28;20076;-77
2021/08/02 14:16:56;;;;;;;1.15;0.80;;;;;;;27.61;43.89;99711.28;6228975;28;20472;-76
2021/08/02 14:19:58;;;;;;;1.23;1.00;;;;;;;27.56;44.25;99711.13;6245063;28;20480;-76
2021/08/02 14:22:59;;;;;;;3.20;1.00;;;;;;;27.65;44.09;99709.81;6228808;28;20037;-76